Time;durP1;ratioP1;P1;durP2;ratioP2;P2;SDS_P1;SDS_P2;PMS_P1;PMS_P2;Temp;Humidity;BMP_temperature;BMP_pressure;BME280_temperature;BME280_humidity;BME280_pressure;Samples;Min_cycle;Max_cycle;Signal;HPM_P1;HPM_P2
2023/06/21 00:00:31;;;;;;;50.47;12.45;;;;;;;17.84;100.00;101272.56;5202949;28;20028;-73
2023/06/21 00:03:04;;;;;;;27.08;14.52;;;;;;;18.02;100.00;101271.97;5202584;28;20061;-73
2023/06/21 00:05:34;;;;;;;25.40;14.98;;;;;;;17.89;100.00;101264.66;5202579;28;20473;-72
2023/06/21 00:08:05;;;;;;;22.50;14.63;;;;;;;17.90;100.00;101266.31;5202511;28;20113;-73
2023/06/21 00:10:36;;;;;;;28.05;15.48;;;;;;;17.92;100.00;101268.81;5202527;28;20026;-73
2023/06/21 00:13:06;;;;;;;27.08;15.02;;;;;;;17.98;100.00;101266.16;5202952;28;20087;-73
2023/06/21 00:15:37;;;;;;;54.05;10.85;;;;;;;17.97;100.00;101277.19;5201964;28;20116;-73
2023/06/21 00:18:07;;;;;;;439.33;19.20;;;;;;;17.85;100.00;101285.09;5202302;28;20402;-73
2023/06/21 00:20:38;;;;;;;71.22;7.38;;;;;;;17.81;100.00;101284.66;5202669;28;20033;-73
2023/06/21 00:23:08;;;;;;;35.80;8.70;;;;;;;17.80;100.00;101287.59;5201461;28;20517;-73
2023/06/21 00:25:39;;;;;;;28.38;16.15;;;;;;;17.88;100.00;101287.41;5202479;28;20029;-73
2023/06/21 00:28:09;;;;;;;32.88;17.52;;;;;;;17.94;100.00;101288.47;5202193;28;20029;-73
2023/06/21 00:30:40;;;;;;;28.70;16.10;;;;;;;17.96;100.00;101292.63;5202545;28;20018;-73
2023/06/21 00:33:10;;;;;;;31.50;15.88;;;;;;;18.01;100.00;101282.00;5202605;28;20029;-73
2023/06/21 00:35:41;;;;;;;26.83;15.98;;;;;;;18.03;100.00;101269.09;5202523;28;20034;-73
2023/06/21 00:38:12;;;;;;;23.40;13.98;;;;;;;18.09;100.00;101272.84;5202376;28;20155;-73
2023/06/21 00:40:43;;;;;;;19.83;11.75;;;;;;;18.02;100.00;101266.56;5202296;28;20022;-73
2023/06/21 00:43:16;;;;;;;20.75;11.75;;;;;;;17.97;100.00;101274.47;5202500;28;20044;-73
2023/06/21 00:45:48;;;;;;;202.15;14.45;;;;;;;17.99;100.00;101275.13;5201960;28;20139;-73
2023/06/21 00:48:18;;;;;;;179.57;13.18;;;;;;;17.79;100.00;101284.03;5202165;28;20025;-73
2023/06/21 00:50:49;;;;;;;66.78;10.90;;;;;;;17.72;100.00;101285.88;5202332;28;20433;-74
2023/06/21 00:53:21;;;;;;;135.43;10.18;;;;;;;17.77;100.00;101285.25;5205336;28;20465;-73
2023/06/21 00:55:52;;;;;;;61.58;9.70;;;;;;;17.72;100.00;101285.88;5205630;28;20087;-73
2023/06/21 00:58:23;;;;;;;21.55;11.80;;;;;;;17.68;100.00;101273.75;5206075;28;20025;-73
2023/06/21 01:00:54;;;;;;;24.45;14.93;;;;;;;17.64;100.00;101277.88;5206105;28;20026;-73
2023/06/21 01:03:25;;;;;;;29.05;16.85;;;;;;;17.74;100.00;101291.94;5206246;28;20096;-73
2023/06/21 01:06:12;;;;;;;33.45;17.73;;;;;;;17.77;100.00;101288.84;5205744;28;20025;-73
2023/06/21 01:08:54;;;;;;;34.92;18.00;;;;;;;17.82;100.00;101294.50;5206315;28;20379;-72
2023/06/21 01:11:28;;;;;;;28.48;16.48;;;;;;;17.84;100.00;101284.25;5205894;28;20030;-73
2023/06/21 01:14:17;;;;;;;28.20;16.80;;;;;;;17.86;100.00;101279.44;5205394;28;20112;-73
2023/06/21 01:16:49;;;;;;;28.83;16.02;;;;;;;17.89;100.00;101277.41;5204847;28;20568;-73
2023/06/21 01:19:33;;;;;;;42.92;11.73;;;;;;;17.83;100.00;101285.31;5192623;28;20037;-73
2023/06/21 01:22:22;;;;;;;17.60;10.50;;;;;;;17.82;100.00;101285.50;5204890;28;20030;-73
2023/06/21 01:25:11;;;;;;;30.52;15.52;;;;;;;17.84;100.00;101286.97;5218728;28;20057;-73
2023/06/21 01:27:53;;;;;;;18.73;11.85;;;;;;;17.83;100.00;101281.75;5204825;28;20112;-73
2023/06/21 01:30:26;;;;;;;21.88;12.50;;;;;;;17.85;100.00;101277.78;5204653;28;20033;-73
2023/06/21 01:32:57;;;;;;;22.55;12.65;;;;;;;17.84;100.00;101278.84;5205143;28;20025;-73
2023/06/21 01:35:29;;;;;;;22.27;11.50;;;;;;;17.89;100.00;101275.50;5205045;28;20021;-73
2023/06/21 01:38:00;;;;;;;25.55;12.30;;;;;;;17.81;100.00;101265.66;5203608;28;20025;-73
2023/06/21 01:40:30;;;;;;;17.95;11.38;;;;;;;17.80;100.00;101277.56;5205092;28;20037;-73
2023/06/21 01:43:01;;;;;;;17.48;11.63;;;;;;;17.81;100.00;101278.41;5204472;28;20025;-73
2023/06/21 01:45:32;;;;;;;38.63;12.88;;;;;;;17.73;100.00;101284.84;5204835;28;20025;-73
2023/06/21 01:48:04;;;;;;;218.35;12.18;;;;;;;17.54;100.00;101296.41;5204428;28;20017;-73
2023/06/21 01:50:42;;;;;;;146.70;12.77;;;;;;;17.46;100.00;101302.84;5205008;28;20033;-72
2023/06/21 01:53:13;;;;;;;28.25;13.27;;;;;;;17.37;100.00;101303.19;5204675;28;20021;-73
2023/06/21 01:55:48;;;;;;;24.73;15.07;;;;;;;17.42;100.00;101309.72;5204191;28;20025;-73
2023/06/21 01:58:19;;;;;;;29.50;15.52;;;;;;;17.46;100.00;101302.00;5204409;28;20040;-73
2023/06/21 02:00:50;;;;;;;29.95;15.73;;;;;;;17.53;100.00;101302.88;5204566;28;20364;-73
2023/06/21 02:03:31;;;;;;;49.53;15.95;;;;;;;17.57;100.00;101320.41;5203710;28;20063;-72
2023/06/21 02:06:04;;;;;;;29.95;16.77;;;;;;;17.55;100.00;101327.94;5203627;28;20034;-73
2023/06/21 02:08:36;;;;;;;29.85;15.40;;;;;;;17.53;100.00;101325.44;5204387;28;20021;-73
2023/06/21 02:11:07;;;;;;;29.77;14.98;;;;;;;17.50;100.00;101314.97;5217464;28;20068;-72
2023/06/21 02:13:37;;;;;;;151.02;18.35;;;;;;;17.54;100.00;101321.66;5204383;28;20104;-73
2023/06/21 02:16:08;;;;;;;175.45;18.13;;;;;;;17.53;100.00;101330.84;5190289;28;20021;-73
2023/06/21 02:18:39;;;;;;;198.55;16.92;;;;;;;17.56;100.00;101329.59;5204117;28;20041;-73
2023/06/21 02:21:11;;;;;;;188.23;14.85;;;;;;;17.57;100.00;101328.56;5204904;28;20021;-73
2023/06/21 02:23:42;;;;;;;253.45;18.02;;;;;;;17.49;100.00;101329.56;5204187;28;20025;-72
2023/06/21 02:26:13;;;;;;;31.02;16.90;;;;;;;17.52;100.00;101331.03;5204008;28;20119;-72
2023/06/21 02:28:45;;;;;;;34.08;17.25;;;;;;;17.60;100.00;101330.88;5203841;28;20410;-73
2023/06/21 02:31:15;;;;;;;26.83;16.15;;;;;;;17.71;100.00;101337.59;5204272;28;20371;-72
2023/06/21 02:33:47;;;;;;;27.25;15.25;;;;;;;17.74;100.00;101348.09;5204064;28;20022;-73
2023/06/21 02:36:18;;;;;;;29.65;17.30;;;;;;;17.81;100.00;101354.38;5202180;28;20022;-73
2023/06/21 02:38:48;;;;;;;40.45;18.30;;;;;;;17.80;100.00;101369.84;5203757;28;20510;-73
2023/06/21 02:41:19;;;;;;;35.45;16.50;;;;;;;17.95;100.00;101371.56;5203343;28;20013;-73
2023/06/21 02:43:49;;;;;;;29.80;17.30;;;;;;;17.99;100.00;101367.41;5203878;28;20017;-73
2023/06/21 02:46:20;;;;;;;38.58;20.13;;;;;;;18.08;100.00;101372.47;5203022;28;20151;-73
2023/06/21 02:48:51;;;;;;;34.70;19.10;;;;;;;18.12;100.00;101370.16;5203524;28;20107;-73
2023/06/21 02:51:24;;;;;;;40.42;18.77;;;;;;;18.21;100.00;101370.84;5203563;28;20381;-73
2023/06/21 02:53:55;;;;;;;38.00;18.10;;;;;;;18.18;100.00;101373.97;5203377;28;20033;-73
2023/06/21 02:56:25;;;;;;;31.20;16.27;;;;;;;18.19;100.00;101370.22;5203061;28;20060;-73
2023/06/21 02:58:56;;;;;;;38.45;17.15;;;;;;;18.19;100.00;101368.34;5203532;28;20431;-73
2023/06/21 03:01:27;;;;;;;34.10;17.00;;;;;;;18.19;100.00;101370.22;5203490;28;20483;-73
2023/06/21 03:03:57;;;;;;;37.70;20.40;;;;;;;18.28;100.00;101379.84;5203353;28;20031;-73
2023/06/21 03:06:29;;;;;;;33.97;19.23;;;;;;;18.31;100.00;101391.13;5201228;28;20121;-73
2023/06/21 03:09:00;;;;;;;35.85;19.48;;;;;;;18.35;100.00;101378.81;5203181;28;20055;-73
2023/06/21 03:11:30;;;;;;;34.83;18.75;;;;;;;18.38;100.00;101381.13;5203176;28;20033;-73
2023/06/21 03:14:01;;;;;;;37.58;19.63;;;;;;;18.37;100.00;101390.34;5203302;28;20057;-73
2023/06/21 03:16:31;;;;;;;30.27;17.38;;;;;;;18.40;100.00;101389.06;5202302;28;20014;-73
2023/06/21 03:19:02;;;;;;;30.65;18.05;;;;;;;18.45;100.00;101377.59;5202683;28;20820;-73
2023/06/21 03:21:33;;;;;;;33.72;16.70;;;;;;;18.56;100.00;101388.69;5203206;28;20028;-73
2023/06/21 03:24:04;;;;;;;33.38;18.60;;;;;;;18.48;100.00;101393.50;5202778;28;20456;-73
2023/06/21 03:26:35;;;;;;;31.77;18.08;;;;;;;18.53;100.00;101389.13;5202400;28;20096;-73
2023/06/21 03:29:06;;;;;;;31.85;17.25;;;;;;;18.43;100.00;101385.13;5202611;28;20030;-73
2023/06/21 03:31:37;;;;;;;33.33;17.98;;;;;;;18.36;100.00;101388.63;5202990;28;20045;-73
2023/06/21 03:34:07;;;;;;;29.77;17.60;;;;;;;18.36;100.00;101394.06;5203144;28;20420;-73
2023/06/21 03:36:37;;;;;;;31.80;16.08;;;;;;;18.36;100.00;101387.81;5202294;28;20025;-74
2023/06/21 03:39:08;;;;;;;33.50;17.70;;;;;;;18.34;100.00;101389.91;5203044;28;20483;-74
2023/06/21 03:41:38;;;;;;;105.88;19.65;;;;;;;18.35;100.00;101395.13;5202625;28;20707;-73
2023/06/21 03:44:09;;;;;;;154.25;16.98;;;;;;;18.30;100.00;101392.19;5202975;28;20033;-73
2023/06/21 03:46:40;;;;;;;123.78;15.25;;;;;;;18.24;100.00;101398.44;5202131;28;20060;-73
2023/06/21 03:49:10;;;;;;;139.18;14.73;;;;;;;18.22;100.00;101403.22;5202878;28;20056;-73
2023/06/21 03:51:40;;;;;;;35.53;12.07;;;;;;;18.14;100.00;101400.69;5202833;28;20049;-73
2023/06/21 03:54:11;;;;;;;28.45;16.05;;;;;;;18.09;100.00;101409.44;5202451;28;20032;-73
2023/06/21 03:56:41;;;;;;;38.08;20.05;;;;;;;18.14;100.00;101413.44;5202154;28;20025;-73
2023/06/21 03:59:12;;;;;;;41.90;20.13;;;;;;;18.14;100.00;101422.41;5202417;28;20116;-73
2023/06/21 04:01:42;;;;;;;38.30;21.05;;;;;;;18.15;100.00;101432.22;5203123;28;20022;-73
2023/06/21 04:04:13;;;;;;;54.63;19.25;;;;;;;18.12;100.00;101432.63;5202726;28;20087;-73
2023/06/21 04:06:43;;;;;;;55.00;22.95;;;;;;;18.14;100.00;101444.13;5201949;28;20022;-73
2023/06/21 04:09:15;;;;;;;37.20;21.00;;;;;;;18.15;100.00;101443.09;5202706;28;20021;-72
2023/06/21 04:11:46;;;;;;;39.60;20.13;;;;;;;18.28;100.00;101451.31;5202552;28;20033;-73
2023/06/21 04:14:18;;;;;;;44.13;23.65;;;;;;;18.36;100.00;101453.81;5202610;28;20438;-73
2023/06/21 04:16:48;;;;;;;47.30;22.80;;;;;;;18.41;100.00;101463.25;5201581;28;20029;-73
2023/06/21 04:19:19;;;;;;;44.70;23.42;;;;;;;18.47;100.00;101457.00;5202213;28;20029;-73
2023/06/21 04:21:49;;;;;;;50.95;23.65;;;;;;;18.51;100.00;101458.28;5202327;28;20022;-73
2023/06/21 04:24:19;;;;;;;44.53;23.98;;;;;;;18.51;100.00;101469.16;5202294;28;20108;-73
2023/06/21 04:26:50;;;;;;;41.83;22.75;;;;;;;18.57;100.00;101457.44;5202973;28;20032;-73
2023/06/21 04:29:20;;;;;;;46.00;22.73;;;;;;;18.57;100.00;101468.31;5206414;28;20032;-73
2023/06/21 04:31:52;;;;;;;35.90;20.05;;;;;;;18.49;100.00;101469.34;5206123;28;20026;-73
2023/06/21 04:34:26;;;;;;;43.80;22.13;;;;;;;18.42;100.00;101467.63;5206451;28;20033;-73
2023/06/21 04:36:57;;;;;;;46.00;20.90;;;;;;;18.43;100.00;101466.63;5205739;28;20083;-73
2023/06/21 04:39:27;;;;;;;82.78;19.30;;;;;;;18.38;100.00;101467.22;5206432;28;20614;-73
2023/06/21 04:41:58;;;;;;;33.40;18.60;;;;;;;18.36;100.00;101475.56;5206233;28;20060;-73
2023/06/21 04:44:28;;;;;;;39.53;20.52;;;;;;;18.38;100.00;101468.06;5205906;28;20029;-73
2023/06/21 04:49:45;;;;;;;40.58;21.35;;;;;;;18.51;100.00;101472.69;5202776;28;20025;-73
2023/06/21 04:52:15;;;;;;;47.22;25.48;;;;;;;18.66;100.00;101472.53;5206239;28;20040;-74
2023/06/21 04:54:45;;;;;;;49.13;23.40;;;;;;;18.76;100.00;101481.16;5205508;28;20022;-74
2023/06/21 04:57:16;;;;;;;48.80;25.45;;;;;;;18.83;100.00;101484.75;5205518;28;20022;-73
2023/06/21 04:59:48;;;;;;;46.05;25.15;;;;;;;18.94;100.00;101488.75;5206185;28;20057;-73
2023/06/21 05:02:19;;;;;;;53.78;25.58;;;;;;;19.03;100.00;101498.41;5202971;28;20438;-73
2023/06/21 05:04:49;;;;;;;57.13;26.60;;;;;;;19.06;100.00;101499.84;5195688;28;20021;-73
2023/06/21 05:07:20;;;;;;;46.00;24.73;;;;;;;19.09;100.00;101499.44;5203923;28;20039;-73
2023/06/21 05:09:50;;;;;;;55.20;25.17;;;;;;;19.13;100.00;101501.56;5200663;28;20118;-73
2023/06/21 05:12:20;;;;;;;55.67;26.77;;;;;;;19.16;100.00;101494.84;5204968;28;20441;-73
2023/06/21 05:14:51;;;;;;;52.75;26.20;;;;;;;19.23;100.00;101501.16;5205418;28;20083;-73
2023/06/21 05:17:21;;;;;;;48.00;23.52;;;;;;;19.30;100.00;101506.59;5204577;28;20112;-73
2023/06/21 05:19:52;;;;;;;46.83;24.58;;;;;;;19.41;100.00;101503.25;5205359;28;20063;-73
2023/06/21 05:22:22;;;;;;;40.20;22.85;;;;;;;19.41;100.00;101497.81;5200740;28;20033;-73
2023/06/21 05:24:53;;;;;;;47.75;24.15;;;;;;;19.40;100.00;101502.41;5200032;28;20025;-73
2023/06/21 05:27:23;;;;;;;39.60;22.80;;;;;;;19.44;100.00;101512.88;5216917;28;20070;-73
2023/06/21 05:29:54;;;;;;;41.42;21.83;;;;;;;19.47;100.00;101512.44;5203482;28;20407;-73
2023/06/21 05:32:26;;;;;;;47.80;23.38;;;;;;;19.60;100.00;101526.09;5212250;28;20059;-73
2023/06/21 05:34:56;;;;;;;43.88;22.27;;;;;;;19.64;100.00;101522.75;5208085;28;20465;-73
2023/06/21 05:37:26;;;;;;;39.13;19.35;;;;;;;19.63;100.00;101526.53;5203436;28;20017;-72
2023/06/21 05:40:00;;;;;;;44.15;20.02;;;;;;;19.69;100.00;101533.03;5202637;28;20429;-73
2023/06/21 05:42:31;;;;;;;37.15;19.67;;;;;;;19.77;100.00;101531.94;5203342;28;20021;-73
2023/06/21 05:45:01;;;;;;;35.80;17.77;;;;;;;19.88;100.00;101537.63;5203325;28;20082;-73
2023/06/21 05:47:32;;;;;;;38.40;19.05;;;;;;;19.94;100.00;101538.66;5203041;28;20021;-72
2023/06/21 05:50:03;;;;;;;31.00;17.67;;;;;;;19.99;100.00;101540.75;5203320;28;20075;-72
2023/06/21 05:52:33;;;;;;;29.10;16.98;;;;;;;20.04;100.00;101538.22;5203464;28;20040;-72
2023/06/21 05:55:04;;;;;;;29.80;16.33;;;;;;;20.11;100.00;101547.22;5203067;28;20743;-73
2023/06/21 05:57:34;;;;;;;26.40;15.35;;;;;;;20.27;100.00;101543.19;5203089;28;20390;-72
2023/06/21 06:00:09;;;;;;;24.88;14.23;;;;;;;20.31;100.00;101548.00;5203228;28;20018;-72
2023/06/21 06:02:39;;;;;;;19.42;11.93;;;;;;;20.54;100.00;101558.47;5203458;28;20029;-72
2023/06/21 06:05:10;;;;;;;18.75;9.85;;;;;;;21.26;100.00;101564.59;5203455;28;20034;-70
2023/06/21 06:07:40;;;;;;;18.27;9.25;;;;;;;21.67;100.00;101558.66;5202090;28;20025;-71
2023/06/21 06:10:11;;;;;;;14.55;8.02;;;;;;;22.21;100.00;101564.50;5202942;28;20426;-71
2023/06/21 06:12:41;;;;;;;11.73;8.43;;;;;;;22.75;100.00;101560.13;5203076;28;20041;-70
2023/06/21 06:15:12;;;;;;;13.48;7.35;;;;;;;23.24;100.00;101574.63;5202985;28;20040;-71
2023/06/21 06:17:42;;;;;;;11.98;8.27;;;;;;;23.49;100.00;101575.31;5202228;28;20541;-71
2023/06/21 06:20:13;;;;;;;13.25;8.20;;;;;;;23.93;100.00;101575.03;5202550;28;20086;-71
2023/06/21 06:22:43;;;;;;;11.95;7.38;;;;;;;24.16;100.00;101587.91;5202903;28;20028;-71
2023/06/21 06:25:14;;;;;;;12.77;7.70;;;;;;;23.93;100.00;101586.00;5202658;28;20124;-71
2023/06/21 06:27:45;;;;;;;11.32;7.65;;;;;;;23.72;100.00;101590.97;5202616;28;20025;-71
2023/06/21 06:30:15;;;;;;;12.50;7.10;;;;;;;23.99;100.00;101593.25;5202279;28;20022;-71
2023/06/21 06:32:46;;;;;;;11.25;7.00;;;;;;;24.18;100.00;101591.25;5202706;28;20040;-71
2023/06/21 06:35:16;;;;;;;12.88;6.93;;;;;;;24.27;100.00;101595.31;5202716;28;20029;-71
2023/06/21 06:37:46;;;;;;;14.05;7.72;;;;;;;24.39;100.00;101595.31;5202304;28;20067;-71
2023/06/21 06:40:17;;;;;;;12.43;6.90;;;;;;;24.21;100.00;101596.25;5202137;28;20025;-71
2023/06/21 06:42:47;;;;;;;11.95;7.07;;;;;;;24.47;100.00;101594.97;5202538;28;20036;-71
2023/06/21 06:45:18;;;;;;;9.32;6.72;;;;;;;24.67;100.00;101602.78;5202253;28;20033;-71
2023/06/21 06:47:48;;;;;;;9.60;6.47;;;;;;;25.25;100.00;101597.16;5202157;28;20737;-71
2023/06/21 06:50:19;;;;;;;13.05;5.88;;;;;;;25.23;100.00;101593.81;5201694;28;20557;-71
2023/06/21 06:52:52;;;;;;;13.43;6.07;;;;;;;25.60;100.00;101592.53;5202471;28;20064;-71
2023/06/21 06:55:22;;;;;;;8.90;5.10;;;;;;;25.47;100.00;101600.00;5202156;28;20065;-71
2023/06/21 06:57:53;;;;;;;9.55;4.43;;;;;;;25.66;100.00;101597.06;5201823;28;20028;-71
2023/06/21 07:00:24;;;;;;;5.90;4.97;;;;;;;25.99;100.00;101601.72;5201821;28;20104;-71
2023/06/21 07:02:56;;;;;;;12.43;4.95;;;;;;;26.24;100.00;101612.28;5202273;28;20021;-71
2023/06/21 07:05:27;;;;;;;8.38;4.80;;;;;;;26.93;100.00;101609.97;5201842;28;20052;-71
2023/06/21 07:07:57;;;;;;;7.93;5.00;;;;;;;27.03;100.00;101610.06;5201406;28;20033;-71
2023/06/21 07:10:27;;;;;;;11.90;5.20;;;;;;;26.52;100.00;101614.09;5201493;28;20099;-71
2023/06/21 07:13:02;;;;;;;11.27;4.82;;;;;;;25.35;100.00;101618.44;5202081;28;20075;-71
2023/06/21 07:15:33;;;;;;;8.23;4.85;;;;;;;25.30;100.00;101626.59;5201901;28;20472;-71
2023/06/21 07:18:03;;;;;;;11.68;5.50;;;;;;;25.34;100.00;101624.19;5201399;28;20072;-71
2023/06/21 07:20:34;;;;;;;9.95;5.10;;;;;;;25.44;100.00;101616.97;5200792;28;20013;-71
2023/06/21 07:23:05;;;;;;;8.30;4.22;;;;;;;26.02;100.00;101617.75;5202224;28;20029;-71
2023/06/21 07:25:36;;;;;;;5.88;4.50;;;;;;;26.43;100.00;101612.88;5201512;28;20087;-71
2023/06/21 07:28:06;;;;;;;8.38;4.65;;;;;;;26.49;100.00;101620.94;5201667;28;20061;-71
2023/06/21 07:30:38;;;;;;;6.93;4.75;;;;;;;27.23;100.00;101622.44;5200980;28;20013;-71
2023/06/21 07:33:08;;;;;;;5.32;4.07;;;;;;;26.46;100.00;101634.41;5201560;28;20075;-71
2023/06/21 07:35:39;;;;;;;10.23;5.70;;;;;;;26.38;100.00;101627.34;5201310;28;20030;-71
2023/06/21 07:38:09;;;;;;;6.72;4.95;;;;;;;26.42;100.00;101636.81;5200491;28;20021;-71
2023/06/21 07:40:40;;;;;;;9.90;5.05;;;;;;;26.24;100.00;101628.78;5201128;28;20104;-71
2023/06/21 07:43:10;;;;;;;7.88;4.97;;;;;;;26.32;100.00;101629.19;5201665;28;20034;-71
2023/06/21 07:45:41;;;;;;;12.95;5.50;;;;;;;27.11;100.00;101633.63;5200745;28;20028;-71
2023/06/21 07:48:12;;;;;;;11.00;5.07;;;;;;;26.54;100.00;101632.00;5201349;28;20398;-71
2023/06/21 07:50:42;;;;;;;13.10;4.90;;;;;;;26.65;100.00;101629.41;5201147;28;20033;-71
2023/06/21 07:53:13;;;;;;;7.25;4.85;;;;;;;26.67;100.00;101635.50;5201755;28;20042;-71
2023/06/21 07:55:43;;;;;;;8.10;5.05;;;;;;;25.80;100.00;101643.22;5200882;28;20108;-71
2023/06/21 07:58:14;;;;;;;10.43;5.03;;;;;;;25.15;100.00;101640.03;5201355;28;20125;-71
2023/06/21 08:00:44;;;;;;;10.00;4.45;;;;;;;25.44;100.00;101643.63;5201020;28;20127;-71
2023/06/21 08:03:15;;;;;;;7.38;4.00;;;;;;;26.74;100.00;101649.91;5205139;28;20423;-71
2023/06/21 08:05:45;;;;;;;5.65;4.40;;;;;;;26.84;100.00;101645.34;5205126;28;20040;-71
2023/06/21 08:08:17;;;;;;;11.80;4.40;;;;;;;26.74;100.00;101644.38;5205601;28;20028;-71
2023/06/21 08:10:48;;;;;;;7.43;4.47;;;;;;;27.23;100.00;101650.00;5204768;28;20392;-71
2023/06/21 08:13:22;;;;;;;7.13;4.45;;;;;;;26.89;100.00;101646.50;5205637;28;20037;-71
2023/06/21 08:15:52;;;;;;;7.57;4.00;;;;;;;27.27;100.00;101651.97;5204858;28;20048;-71
2023/06/21 08:18:23;;;;;;;7.22;3.72;;;;;;;27.49;100.00;101651.91;5205095;28;20637;-71
2023/06/21 08:20:53;;;;;;;5.70;3.63;;;;;;;26.65;100.00;101657.75;5204421;28;20025;-71
2023/06/21 08:23:24;;;;;;;5.30;3.83;;;;;;;25.67;100.00;101653.66;5205402;28;20010;-71
2023/06/21 08:25:55;;;;;;;7.47;3.83;;;;;;;25.47;100.00;101649.47;5204868;28;20029;-71
2023/06/21 08:28:25;;;;;;;7.70;3.65;;;;;;;26.56;100.00;101646.38;5205321;28;20025;-71
2023/06/21 08:30:56;;;;;;;5.40;4.20;;;;;;;26.78;100.00;101656.56;5204814;28;20026;-71
2023/06/21 08:33:26;;;;;;;9.02;3.88;;;;;;;27.07;100.00;101660.81;5204773;28;20104;-71
2023/06/21 08:35:57;;;;;;;7.07;3.63;;;;;;;27.08;100.00;101662.50;5204797;28;20364;-71
2023/06/21 08:38:27;;;;;;;6.95;4.15;;;;;;;27.18;100.00;101658.19;5205139;28;20029;-71
2023/06/21 08:41:02;;;;;;;6.25;3.58;;;;;;;27.34;100.00;101660.03;5204634;28;20021;-71
2023/06/21 08:43:32;;;;;;;5.75;3.38;;;;;;;28.17;100.00;101665.25;5205354;28;20037;-71
2023/06/21 08:46:05;;;;;;;6.72;3.85;;;;;;;28.52;100.00;101673.81;5203121;28;20036;-71
2023/06/21 08:48:37;;;;;;;16.70;5.43;;;;;;;27.72;100.00;101672.88;5204884;28;20112;-71
2023/06/21 08:51:08;;;;;;;5.40;2.95;;;;;;;28.07;100.00;101666.84;5203065;28;20032;-71
2023/06/21 08:53:46;;;;;;;5.88;3.13;;;;;;;27.57;100.00;101665.25;5203957;28;20021;-71
2023/06/21 08:56:23;;;;;;;8.38;3.38;;;;;;;26.77;100.00;101664.00;5203886;28;20021;-71
2023/06/21 08:59:02;;;;;;;7.55;3.58;;;;;;;26.00;100.00;101670.19;5204973;28;20437;-71
2023/06/21 09:01:52;;;;;;;6.13;3.28;;;;;;;26.35;100.00;101677.34;5204334;28;20163;-71
2023/06/21 09:04:25;;;;;;;7.93;3.53;;;;;;;27.30;100.00;101670.72;5204637;28;20033;-71
2023/06/21 09:06:56;;;;;;;9.55;3.75;;;;;;;28.36;100.00;101674.78;5203636;28;20036;-71
2023/06/21 09:09:27;;;;;;;6.60;3.30;;;;;;;28.08;100.00;101679.53;5204782;28;20084;-71
2023/06/21 09:11:58;;;;;;;4.97;3.47;;;;;;;28.19;100.00;101687.88;5204215;28;20032;-71
2023/06/21 09:14:31;;;;;;;6.88;3.35;;;;;;;28.57;100.00;101682.13;5204203;28;20018;-71
2023/06/21 09:17:02;;;;;;;5.95;3.72;;;;;;;27.95;100.00;101677.19;5203201;28;20434;-71
2023/06/21 09:19:35;;;;;;;3.58;3.03;;;;;;;27.45;100.00;101672.81;5204071;28;20087;-71
2023/06/21 09:22:06;;;;;;;6.03;3.05;;;;;;;27.19;100.00;101679.13;5203964;28;20104;-71
2023/06/21 09:24:37;;;;;;;8.63;3.60;;;;;;;27.57;100.00;101686.47;5203316;28;20030;-72
2023/06/21 09:27:08;;;;;;;8.00;3.67;;;;;;;27.69;100.00;101683.53;5203742;28;20025;-72
2023/06/21 09:29:38;;;;;;;6.22;3.42;;;;;;;28.28;100.00;101680.78;5203659;28;20025;-72
2023/06/21 09:32:09;;;;;;;7.28;3.17;;;;;;;28.25;100.00;101684.06;5203551;28;20394;-72
2023/06/21 09:34:39;;;;;;;5.05;3.28;;;;;;;28.25;100.00;101678.53;5204240;28;20025;-72
2023/06/21 09:37:09;;;;;;;8.27;3.92;;;;;;;27.81;100.00;101679.56;5203577;28;20087;-72
2023/06/21 09:39:40;;;;;;;11.43;3.47;;;;;;;28.53;100.00;101689.25;5203863;28;20039;-72
2023/06/21 09:42:12;;;;;;;3.88;2.80;;;;;;;28.83;100.00;101685.84;5203216;28;20140;-72
2023/06/21 09:44:45;;;;;;;5.43;3.20;;;;;;;29.02;100.00;101683.50;5203877;28;20021;-72
2023/06/21 09:47:15;;;;;;;7.50;3.13;;;;;;;29.21;100.00;101683.81;5203364;28;20446;-72
2023/06/21 09:49:47;;;;;;;4.95;2.92;;;;;;;29.19;100.00;101691.56;5203895;28;20021;-72
2023/06/21 09:52:22;;;;;;;4.75;2.60;;;;;;;28.97;100.00;101694.53;5203710;28;20649;-72
2023/06/21 09:54:55;;;;;;;;;;;;;;;28.44;100.00;101687.25;5203775;28;20080;-72
2023/06/21 09:57:45;;;;;;;7.55;3.25;;;;;;;28.61;100.00;101696.19;5203422;28;19913;-72
2023/06/21 10:00:15;;;;;;;4.03;3.20;;;;;;;28.77;100.00;101699.91;5203346;28;20026;-72
2023/06/21 10:02:46;;;;;;;5.32;3.05;;;;;;;28.40;100.00;101703.50;5203413;28;20434;-71
2023/06/21 10:05:18;;;;;;;6.40;3.30;;;;;;;28.06;100.00;101700.16;5203339;28;20029;-71
2023/06/21 10:07:49;;;;;;;6.00;2.95;;;;;;;27.77;100.00;101697.72;5202331;28;20376;-72
2023/06/21 10:10:20;;;;;;;7.03;3.05;;;;;;;28.02;100.00;101699.06;5202906;28;20035;-71
2023/06/21 10:12:53;;;;;;;7.07;3.22;;;;;;;28.35;100.00;101709.00;5203232;28;20390;-72
2023/06/21 10:15:23;;;;;;;5.18;2.78;;;;;;;27.73;100.00;101704.84;5198453;28;20034;-72
2023/06/21 10:17:55;;;;;;;5.97;2.58;;;;;;;27.96;100.00;101711.94;5203771;28;20048;-72
2023/06/21 10:20:26;;;;;;;4.88;2.78;;;;;;;28.29;100.00;101705.34;5208823;28;20034;-72
2023/06/21 10:22:59;;;;;;;4.25;2.35;;;;;;;28.58;100.00;101707.78;5207341;28;20082;-72
2023/06/21 10:25:30;;;;;;;5.50;2.90;;;;;;;28.49;100.00;101706.63;5207000;28;20029;-72
2023/06/21 10:28:07;;;;;;;6.25;3.00;;;;;;;28.69;100.00;101711.44;5208834;28;20091;-72
2023/06/21 10:30:39;;;;;;;7.10;2.97;;;;;;;28.19;100.00;101712.69;5204256;28;20438;-72
2023/06/21 10:33:12;;;;;;;6.63;3.33;;;;;;;28.65;100.00;101714.72;5209954;28;20032;-72
2023/06/21 10:35:47;;;;;;;4.13;2.75;;;;;;;28.64;100.00;101721.34;5203835;28;20037;-72
2023/06/21 10:38:37;;;;;;;4.63;2.60;;;;;;;28.51;100.00;101715.44;5205893;28;20112;-72
2023/06/21 10:41:08;;;;;;;5.47;2.42;;;;;;;28.30;100.00;101709.75;5207386;28;20514;-73
2023/06/21 10:43:40;;;;;;;4.00;2.40;;;;;;;28.26;100.00;101718.81;5203783;28;20030;-72
2023/06/21 10:46:11;;;;;;;3.28;2.65;;;;;;;28.41;100.00;101726.41;5206740;28;20024;-72
2023/06/21 10:48:44;;;;;;;6.68;3.08;;;;;;;27.66;100.00;101726.22;5206939;28;20095;-72
2023/06/21 10:51:16;;;;;;;3.35;2.47;;;;;;;27.80;100.00;101727.50;5208606;28;20040;-72
2023/06/21 10:53:47;;;;;;;4.85;2.58;;;;;;;28.21;100.00;101721.53;5206816;28;20049;-72
2023/06/21 10:56:19;;;;;;;4.53;2.50;;;;;;;28.22;100.00;101728.75;5209740;28;20071;-72
2023/06/21 10:58:49;;;;;;;4.65;2.72;;;;;;;28.11;100.00;101728.66;5209186;28;20021;-72
2023/06/21 11:01:21;;;;;;;6.55;2.80;;;;;;;28.25;100.00;101729.03;5212281;28;20467;-72
2023/06/21 11:03:52;;;;;;;3.53;2.38;;;;;;;28.27;100.00;101724.09;5209723;28;20036;-73
2023/06/21 11:06:26;;;;;;;4.20;2.88;;;;;;;28.36;100.00;101724.44;5207054;28;20016;-72
2023/06/21 11:09:08;;;;;;;3.78;2.50;;;;;;;28.65;100.00;101719.41;5209769;28;20387;-73
2023/06/21 11:11:48;;;;;;;4.78;2.45;;;;;;;28.60;100.00;101720.22;5209942;28;20044;-72
2023/06/21 11:14:22;;;;;;;18.52;4.10;;;;;;;28.49;100.00;101718.50;5204706;28;20032;-72
2023/06/21 11:17:06;;;;;;;11.68;4.63;;;;;;;28.58;100.00;101716.91;5204620;28;20025;-72
2023/06/21 11:19:37;;;;;;;4.95;2.78;;;;;;;28.74;100.00;101725.28;5208585;28;20502;-72
2023/06/21 11:22:22;;;;;;;7.65;2.88;;;;;;;28.86;100.00;101725.88;5210230;28;20026;-72
2023/06/21 11:27:43;;;;;;;5.50;2.60;;;;;;;28.83;100.00;101726.44;5211839;28;20549;-73
2023/06/21 11:30:18;;;;;;;3.70;2.45;;;;;;;28.67;100.00;101724.66;5207972;28;20025;-73
2023/06/21 11:33:17;;;;;;;5.38;2.70;;;;;;;28.58;100.00;101727.94;5205969;28;20116;-72